Dieterich, Illinois
Current Conditions -  °F | °C
As of 9:15 PM on Friday 21 Nov 2014 (Local Time) from K1H2 Reporting Station
Overcast Overcast  
Wind Chill: 30°   Ceiling: 2200
Heat Index: 37°   Visibility: NA
Dew Point: 17°   Wind: 10mph
Humidity: 44%   Direction: 140°SE
Pressure: 30.29"   Gusts: NA
Location:  39.06°N, 88.38°W
Report Text: K1H2 220315Z AUTO 14009KT OVC022 03/M08 A3029 RMK AO2 T00291082 PWINO
Loading
Personal Weather Stations






























Interactive Weather Map New forecast layout! Learn more

10-Day Weather Forecast

Advertisements
Track Severe Weather on mobile